Flag for Greece

Past Weather in 40°38'07.0"N, 22°55'54.5"E, Greece — Yesterday and Last 2 Weeks

Currently: 75 °F. Sunny. (Weather station: Thessaloniki Airport, Greece). See more current weather

Past Weather in 40°38'07.0"N, 22°55'54.5"E — Graph

°F

40°38'07.0"N, 22°55'54.5"E Temperature Yesterday

Maximum temperature yesterday: 70 °F (at 6:20 pm)
Minimum temperature yesterday: 54 °F (at 1:50 am)
Average temperature yesterday: 61 °F

High & Low Weather Summary for the Past Weeks

 TemperatureHumidityPressure
High81 °F (May 7, 3:50 pm)100% (May 8, 7:20 am)30.21 "Hg (May 8, 7:20 am)
Low50 °F (May 6, 4:20 am)32% (May 6, 3:50 pm)29.68 "Hg (May 3, 4:20 pm)
Average64 °F70%29.98 "Hg
* Reported May 3 1:20 pm — May 18 1:20 pm, 40°38'07.0"N, 22°55'54.5"E. Weather by CustomWeather, © 2024

Note: Actual official high and low records may vary slightly from our data, if they occured in-between our weather recording intervals... More about our weather records

40°38'07.0"N, 22°55'54.5"E Weather History for the Previous 24 Hours

Scroll right to see more
 ConditionsComfort  
Time TempWeatherWind HumidityBarometerVisibility
1:20 pm
Sat, May 18
72 °FSunny.8 mph61%30.07 "Hg10 mi
12:50 pm72 °FSunny.8 mph61%30.07 "Hg10 mi
12:20 pm70 °FSunny.6 mph69%30.07 "Hg10 mi
11:50 am70 °FSunny.6 mph69%30.07 "Hg10 mi
11:20 am68 °FSunny.5 mph69%30.07 "Hg10 mi
10:50 am68 °FSunny.5 mph69%30.07 "Hg10 mi
9:50 am64 °FSunny.5 mph78%30.07 "Hg10 mi
9:20 am64 °FSunny.2 mph78%30.04 "Hg10 mi
8:50 am64 °FSunny.2 mph78%30.04 "Hg10 mi
8:20 am63 °FSunny.3 mph77%30.04 "Hg10 mi
7:50 am63 °FSunny.3 mph77%30.04 "Hg10 mi
7:20 am54 °FSunny.6 mph100%30.04 "Hg10 mi
6:50 am54 °FSunny.6 mph100%30.04 "Hg10 mi
6:20 am54 °FSunny.6 mph100%30.04 "Hg10 mi
5:50 am52 °FPassing clouds.6 mph100%30.04 "HgN/A
5:20 am54 °FPassing clouds.6 mph100%30.04 "HgN/A
4:50 am54 °FPassing clouds.6 mph100%30.04 "HgN/A
4:20 am54 °FPassing clouds.5 mph100%30.04 "HgN/A
3:50 am55 °FPassing clouds.5 mph100%30.01 "HgN/A
2:50 am55 °FPassing clouds.5 mph100%30.04 "HgN/A
2:20 am55 °FPassing clouds.7 mph100%30.04 "HgN/A
1:50 am55 °FPassing clouds.5 mph100%30.04 "HgN/A
1:20 am57 °FPassing clouds.2 mph100%30.04 "HgN/A
12:50 am57 °FClear.3 mph100%30.04 "Hg10 mi
12:20 am59 °FClear.3 mph94%30.07 "Hg10 mi
11:50 pm
Fri, May 17
59 °FClear.3 mph94%30.07 "Hg10 mi
11:20 pm59 °FClear.3 mph88%30.07 "Hg10 mi
10:50 pm61 °FClear.3 mph83%30.04 "Hg10 mi
10:20 pm61 °FClear.3 mph83%30.04 "Hg10 mi
9:50 pm63 °FClear.3 mph73%30.04 "Hg10 mi
9:20 pm64 °FClear.3 mph73%30.04 "Hg10 mi
8:50 pm64 °FClear.6 mph73%30.01 "Hg10 mi
8:20 pm68 °FSunny.7 mph56%30.01 "Hg10 mi
7:50 pm68 °FPassing clouds.8 mph56%30.01 "HgN/A
7:20 pm68 °FPassing clouds.6 mph56%30.01 "HgN/A
6:50 pm70 °FPassing clouds.7 mph53%30.01 "HgN/A
6:20 pm70 °FPassing clouds.6 mph57%30.01 "HgN/A
5:50 pm68 °FPassing clouds.8 mph60%30.01 "HgN/A
5:20 pm68 °FPassing clouds.8 mph60%30.01 "HgN/A
4:20 pm68 °FPassing clouds.8 mph64%30.01 "HgN/A
3:50 pm68 °FPassing clouds.8 mph60%30.04 "HgN/A
3:20 pm68 °FPassing clouds.7 mph60%30.04 "HgN/A
2:50 pm66 °FPassing clouds.6 mph64%30.04 "HgN/A
2:20 pm66 °FPassing clouds.8 mph64%30.07 "HgN/A
Weather by CustomWeather, © 2024

See weather overview